Relevés horaires Bouveret (Suisse)


Relevés horaires à Bouveret - Lundi 24 Août 2026
Heure UTC1 Température [°C] Vent [km/h] Hum. [%] Pres.4 [hPa] Visi. [Km] Nébu. [octa] Préc.5 [mm] Cond.
2m. Res. Ros. Dir.2 Vit. Moy. Raf.3
23:00 20.7 20.7 17.6 O 9.3 -- 13.0 82 1010(0.7/3h) -- -- -- --
22:00 20.3 20.3 17.6 O 9.3 -- 20.4 84 1009.4(1.1/3h) -- -- -- --
21:00 22.2 22.2 18.5 O 16.7 -- 51.9 80 1009.9(1.0/3h) -- -- -- --
20:00 20.6 20.6 17.5 O 7.4 -- 51.9 82 1009.3(-0.4/3h) -- -- -- --
19:00 22.7 22.7 16.7 SE 20.4 -- 31.5 69 1007.9 -- -- -- --
18:00 24.3 24.3 16.0 SSE 9.3 -- 13.0 60 1008.6 -- -- -- --
17:00 24.4 24.4 15.4 O 1.9 -- 3.7 57 1009.1 -- -- -- --
16:00 24.5 24.5 14.2 NNO 0.0 -- 5.6 53 1009.5(-3.7/3h) -- -- -- --
15:00 23.3 23.3 13.3 NNO 1.9 -- 9.3 53 1011.3(-2.9/3h) -- -- -- --
14:00 22.7 22.7 13.6 NO 3.7 -- 9.3 56 1012.5(-2.6/3h) -- -- -- --
13:00 21.8 21.8 14.4 NNO 5.6 -- 9.3 63 1013.8(-2.5/3h) -- -- -- --
12:00 21.4 21.4 13.6 NNO 5.6 -- 14.8 61 1014.7(-2.1/3h) -- -- -- --
11:00 20.8 20.8 14.0 NO 5.6 -- 13.0 65 1015.5 -- -- -- --
10:00 20.6 20.6 14.0 NO 7.4 -- 14.8 66 1016.6 -- -- -- --
09:00 20.5 20.5 13.2 NO 9.3 -- 13.0 63 1017(-0.5/3h) -- -- -- --
08:00 19.0 19.0 12.6 ESE 3.7 -- 7.4 66 1017.3(-0.1/3h) -- -- -- --
07:00 18.1 18.1 11.6 SSE 5.6 -- 13.0 66 1017.8 -- -- -- --
06:00 17.6 17.6 11.3 SSE 7.4 -- 13.0 67 1018(0.0/3h) -- -- -- --
05:00 16.7 16.7 11.6 SE 5.6 -- 9.3 72 1017.8(-0.5/3h) -- -- -- --
04:00 17.8 17.8 12.2 S 1.9 -- 9.3 70 1017.8(-0.2/3h) -- -- -- --
03:00 18.5 18.5 12.9 S 1.9 -- 13.0 70 1017.8(-0.3/3h) -- -- -- --
02:00 17.5 17.5 11.2 SSE 7.4 -- 11.1 67 1018.2(-0.4/3h) -- -- -- --
01:00 17.8 17.8 10.4 SE 7.4 -- 13.0 62 1018.1(-0.3/3h) -- -- -- --
00:00 17.7 17.7 10.4 SE 11.1 -- 14.8 62 1018.3(0.2/3h) -- -- -- --

1 Coordinated Universal Time. Actuellement il est 05:00 locale et 03:00 UTC.

2 Le vent souffle depuis la direction indiquée vers la direction oposée.

3 Les rafales max. sont disponible 40 min après l'heure du relevé.

4 Pour les stations d'altitude (plus de 600m) le géopotentiel du niveau le plus proche de la pression obligatoire est indiqué.

5 Les stations disposant d'un diffuseur peuvent indiquer "trace". Cela signifie que des précipitations ont touchés le sol mais que la quantité est inférieure à 0.1 mm.

Copyright

Les données affichées sur cette page sont la propriété exclusive de Météo Suisse.

Récapitulatif de la journée
Température [°C] Vent [km/h] Ensoleillement4 [h] Precipitations totale5 [mm] Pression [Hpa]
Min1 Max.2 Moy.3 Max. Min Max.
16.3 24.6 0 51.9 0 h 0 min 0 1007.9 1018.3

1 Température minimale relevée entre 18:00 UTC la veille et 18:00 UTC le jour donné.

2 Température maximale relevée entre 06:00 UTC le jour donné et 06:00 UTC le lendemain.

3 Vent moyen de la journée basé sur les relevés horaires.

4 Ensoleillement en heures relevé entre 06:00 UTC la veille et 06:00 UTC le jour donné.

5 Précipitations totales tombées entre 06:00 UTC la jour donné et 06:00 UTC le lendemain.

Graphiques horaires